Time;durP1;ratioP1;P1;durP2;ratioP2;P2;SDS_P1;SDS_P2;PMS_P1;PMS_P2;Temp;Humidity;BMP_temperature;BMP_pressure;BME280_temperature;BME280_humidity;BME280_pressure;Samples;Min_cycle;Max_cycle;Signal;HPM_P1;HPM_P2
2021/06/20 00:00:48;;;;;;;;;;;;;;;21.01;57.91;100711.59;2203398;39;114929;-52
2021/06/20 00:02:20;;;;;;;;;;;;;;;21.01;58.08;100707.97;2207638;39;114790;-52
2021/06/20 00:03:53;;;;;;;;;;;;;;;21.02;57.85;100716.06;2205383;39;115876;-53
2021/06/20 00:05:26;;;;;;;;;;;;;;;21.02;58.17;100715.25;2191135;39;114689;-53
2021/06/20 00:06:58;;;;;;;;;;;;;;;21.03;58.16;100716.91;2199427;39;114864;-53
2021/06/20 00:08:30;;;;;;;;;;;;;;;21.02;57.88;100721.69;2209369;39;115426;-53
2021/06/20 00:10:03;;;;;;;;;;;;;;;21.04;58.33;100715.75;2203638;39;114567;-52
2021/06/20 00:11:36;;;;;;;;;;;;;;;21.03;57.93;100714.09;2190713;39;115781;-53
2021/06/20 00:13:08;;;;;;;;;;;;;;;21.01;58.20;100705.16;2200487;39;115515;-53
2021/06/20 00:14:40;;;;;;;;;;;;;;;21.02;58.19;100718.06;2199260;39;115500;-53
2021/06/20 00:16:12;;;;;;;;;;;;;;;21.01;58.41;100717.22;2201364;39;115485;-52
2021/06/20 00:17:44;;;;;;;;;;;;;;;21.01;58.54;100711.59;2196604;39;115564;-53
2021/06/20 00:19:16;;;;;;;;;;;;;;;21.04;58.54;100715.75;2201275;39;115824;-53
2021/06/20 00:20:48;;;;;;;;;;;;;;;21.03;58.38;100711.28;2208371;39;115581;-53
2021/06/20 00:22:20;;;;;;;;;;;;;;;21.02;58.62;100706.81;2195623;39;115904;-53
2021/06/20 00:23:52;;;;;;;;;;;;;;;21.00;58.36;100703.47;2202437;39;115442;-53
2021/06/20 00:25:24;;;;;;;;;;;;;;;21.01;58.59;100700.38;2206759;39;115567;-53
2021/06/20 00:26:56;;;;;;;;;;;;;;;21.01;58.54;100691.09;2195548;39;113786;-53
2021/06/20 00:28:28;;;;;;;;;;;;;;;21.03;58.56;100695.25;2200612;39;113823;-52
2021/06/20 00:30:00;;;;;;;;;;;;;;;21.01;58.37;100694.75;2196163;39;113868;-53
2021/06/20 00:31:32;;;;;;;;;;;;;;;21.03;58.47;100692.44;2190969;39;113813;-53
2021/06/20 00:33:04;;;;;;;;;;;;;;;21.05;58.67;100692.13;2200442;39;113784;-53
2021/06/20 00:34:36;;;;;;;;;;;;;;;21.05;58.80;100690.16;2195757;39;113912;-53
2021/06/20 00:36:09;;;;;;;;;;;;;;;21.04;58.79;100696.91;2199329;39;113885;-53
2021/06/20 00:37:40;;;;;;;;;;;;;;;21.06;58.61;100690.97;2195862;39;113656;-53
2021/06/20 00:39:12;;;;;;;;;;;;;;;21.07;58.50;100692.66;2193384;39;113713;-52
2021/06/20 00:40:44;;;;;;;;;;;;;;;21.05;58.65;100692.97;2200553;39;113855;-53
2021/06/20 00:42:16;;;;;;;;;;;;;;;21.07;58.62;100692.66;2203749;39;113919;-54
2021/06/20 00:43:48;;;;;;;;;;;;;;;21.06;58.60;100690.97;2203836;39;113923;-54
2021/06/20 00:45:21;;;;;;;;;;;;;;;21.05;58.63;100695.78;2205649;39;113784;-53
2021/06/20 00:46:54;;;;;;;;;;;;;;;21.05;58.46;100689.31;2199238;39;113744;-53
2021/06/20 00:48:26;;;;;;;;;;;;;;;21.06;58.79;100696.59;2201237;39;115288;-53
2021/06/20 00:49:58;;;;;;;;;;;;;;;21.04;58.65;100690.47;2193320;39;115102;-53
2021/06/20 00:51:30;;;;;;;;;;;;;;;21.05;58.44;100689.31;2202298;39;114346;-53
2021/06/20 00:53:03;;;;;;;;;;;;;;;21.05;58.56;100686.50;2196554;39;114292;-53
2021/06/20 00:54:35;;;;;;;;;;;;;;;21.05;58.27;100683.69;2201476;39;114917;-53
2021/06/20 00:56:07;;;;;;;;;;;;;;;21.05;58.48;100689.31;2196398;39;114853;-54
2021/06/20 00:57:39;;;;;;;;;;;;;;;21.06;58.43;100697.44;2200629;39;115371;-53
2021/06/20 00:59:11;;;;;;;;;;;;;;;21.04;58.22;100694.09;2204328;39;114952;-53
2021/06/20 01:00:43;;;;;;;;;;;;;;;21.05;58.60;100698.56;2203822;39;113956;-54
2021/06/20 01:02:16;;;;;;;;;;;;;;;21.04;58.41;100685.69;2198096;39;114903;-54
2021/06/20 01:03:48;;;;;;;;;;;;;;;21.04;58.60;100682.88;2196576;39;114857;-53
2021/06/20 01:05:20;;;;;;;;;;;;;;;21.05;58.44;100684.53;2201220;39;114924;-53
2021/06/20 01:06:52;;;;;;;;;;;;;;;21.05;58.06;100675.28;2197996;39;115007;-55
2021/06/20 01:08:25;;;;;;;;;;;;;;;21.06;58.33;100674.97;2203079;39;115548;-52
2021/06/20 01:09:57;;;;;;;;;;;;;;;21.07;58.02;100670.19;2205134;39;116183;-53
2021/06/20 01:11:28;;;;;;;;;;;;;;;21.04;58.39;100667.97;2204501;39;115587;-52
2021/06/20 01:13:00;;;;;;;;;;;;;;;21.04;58.08;100662.38;2204961;39;115582;-53
2021/06/20 01:14:33;;;;;;;;;;;;;;;21.07;58.21;100653.31;2204911;39;115648;-54
2021/06/20 01:16:05;;;;;;;;;;;;;;;21.04;58.07;100659.56;2197515;39;115652;-53
2021/06/20 01:17:37;;;;;;;;;;;;;;;21.06;58.38;100657.28;2201702;39;116117;-53
2021/06/20 01:19:09;;;;;;;;;;;;;;;21.07;58.35;100650.50;2190844;39;116278;-53
2021/06/20 01:20:41;;;;;;;;;;;;;;;21.05;58.18;100647.19;2191284;39;115628;-54
2021/06/20 01:22:13;;;;;;;;;;;;;;;21.06;58.39;100649.69;2196515;39;114174;-53
2021/06/20 01:23:45;;;;;;;;;;;;;;;21.04;58.53;100635.13;2199133;39;114597;-53
2021/06/20 01:25:19;;;;;;;;;;;;;;;21.06;58.41;100635.63;2201198;39;115522;-52
2021/06/20 01:26:51;;;;;;;;;;;;;;;21.07;58.40;100628.03;2204895;39;115672;-53
2021/06/20 01:28:27;;;;;;;;;;;;;;;21.04;58.53;100621.06;2202758;39;115459;-52
2021/06/20 01:30:02;;;;;;;;;;;;;;;21.05;58.11;100625.53;2197210;39;115533;-52
2021/06/20 01:31:35;;;;;;;;;;;;;;;21.06;58.48;100629.19;2202638;39;115689;-52
2021/06/20 01:33:08;;;;;;;;;;;;;;;21.07;58.21;100625.22;2208893;39;113644;-53
2021/06/20 01:34:40;;;;;;;;;;;;;;;21.06;58.29;100623.56;2203020;39;113625;-53
2021/06/20 01:36:13;;;;;;;;;;;;;;;21.06;58.67;100621.59;2202028;39;113774;-52
2021/06/20 01:37:45;;;;;;;;;;;;;;;21.07;58.17;100614.00;2195312;39;114409;-53
2021/06/20 01:39:17;;;;;;;;;;;;;;;21.07;58.31;100614.00;2196108;39;113736;-53
2021/06/20 01:40:49;;;;;;;;;;;;;;;21.05;58.46;100614.31;2195330;39;113980;-52
2021/06/20 01:42:21;;;;;;;;;;;;;;;21.06;58.16;100615.13;2201687;39;113755;-54
2021/06/20 01:43:52;;;;;;;;;;;;;;;21.06;58.39;100612.34;2199496;39;114259;-52
2021/06/20 01:45:25;;;;;;;;;;;;;;;21.06;58.49;100615.97;2204692;39;113778;-52
2021/06/20 01:46:56;;;;;;;;;;;;;;;21.08;58.35;100607.22;2201959;39;113907;-53
2021/06/20 01:48:28;;;;;;;;;;;;;;;21.06;58.62;100607.53;2200609;39;113924;-52
2021/06/20 01:50:02;;;;;;;;;;;;;;;21.05;58.54;100608.69;2203733;39;113923;-53
2021/06/20 01:51:34;;;;;;;;;;;;;;;21.05;58.37;100602.25;2201680;39;113978;-53
2021/06/20 01:53:06;;;;;;;;;;;;;;;21.05;58.55;100614.31;2198863;39;113925;-53
2021/06/20 01:54:50;;;;;;;;;;;;;;;21.05;58.50;100611.50;2189834;39;114262;-53
2021/06/20 01:56:21;;;;;;;;;;;;;;;21.04;58.58;100611.81;2201771;39;114821;-53
2021/06/20 01:57:53;;;;;;;;;;;;;;;21.06;58.30;100607.53;2205199;39;113914;-53
2021/06/20 01:59:25;;;;;;;;;;;;;;;21.06;58.60;100601.09;2207352;39;115150;-52
2021/06/20 02:00:57;;;;;;;;;;;;;;;21.05;58.36;100602.25;2207248;39;115182;-53
2021/06/20 02:02:30;;;;;;;;;;;;;;;21.06;58.61;100609.53;2204354;39;115067;-53
2021/06/20 02:04:02;;;;;;;;;;;;;;;21.05;58.60;100611.50;2201367;39;114867;-54
2021/06/20 02:05:34;;;;;;;;;;;;;;;21.05;58.69;100616.28;2204078;39;115669;-53
2021/06/20 02:07:06;;;;;;;;;;;;;;;21.03;58.80;100613.78;2199106;39;114836;-53
2021/06/20 02:08:38;;;;;;;;;;;;;;;21.05;59.01;100616.28;2201852;39;114853;-53
2021/06/20 02:10:11;;;;;;;;;;;;;;;21.05;58.82;100614.31;2199131;39;114968;-53
2021/06/20 02:11:43;;;;;;;;;;;;;;;21.06;58.77;100613.16;2195606;39;113861;-53
2021/06/20 02:13:15;;;;;;;;;;;;;;;21.05;58.60;100605.88;2202478;39;115537;-53
2021/06/20 02:14:47;;;;;;;;;;;;;;;21.07;58.70;100611.19;2206954;39;115780;-53
2021/06/20 02:16:19;;;;;;;;;;;;;;;21.05;58.82;100619.09;2204723;39;115545;-53
2021/06/20 02:17:52;;;;;;;;;;;;;;;21.06;58.77;100613.16;2207105;39;115582;-54
2021/06/20 02:19:23;;;;;;;;;;;;;;;21.05;58.50;100613.47;2195760;39;115695;-53
2021/06/20 02:20:55;;;;;;;;;;;;;;;21.03;58.90;100608.16;2189682;39;114811;-53
2021/06/20 02:22:28;;;;;;;;;;;;;;;21.05;58.71;100605.88;2190032;39;115503;-53
2021/06/20 02:24:00;;;;;;;;;;;;;;;21.04;58.62;100604.22;2192511;39;115947;-53
2021/06/20 02:25:32;;;;;;;;;;;;;;;21.06;58.50;100603.91;2197303;39;115594;-53
2021/06/20 02:27:05;;;;;;;;;;;;;;;21.06;58.32;100595.47;2198794;39;115548;-54
2021/06/20 02:28:37;;;;;;;;;;;;;;;21.06;58.75;100595.47;2196046;39;115479;-53
2021/06/20 02:30:10;;;;;;;;;;;;;;;21.04;58.49;100587.34;2191472;39;115479;-53
2021/06/20 02:31:42;;;;;;;;;;;;;;;21.06;58.95;100593.50;2192861;39;115069;-52
2021/06/20 02:33:14;;;;;;;;;;;;;;;21.06;59.00;100578.63;2194194;39;115520;-53
2021/06/20 02:34:46;;;;;;;;;;;;;;;21.05;59.04;100589.03;2198561;39;115861;-53
2021/06/20 02:36:18;;;;;;;;;;;;;;;21.04;59.02;100586.53;2193029;39;115533;-53
2021/06/20 02:37:50;;;;;;;;;;;;;;;21.06;58.96;100578.63;2196120;39;114007;-53
2021/06/20 02:39:22;;;;;;;;;;;;;;;21.05;58.70;100582.56;2191925;39;114334;-52
2021/06/20 02:40:54;;;;;;;;;;;;;;;21.05;58.63;100585.38;2196225;39;113942;-53
2021/06/20 02:42:26;;;;;;;;;;;;;;;21.05;58.86;100574.97;2198602;39;113763;-53
2021/06/20 02:43:58;;;;;;;;;;;;;;;21.06;58.78;100579.47;2197998;39;113702;-52
2021/06/20 02:45:29;;;;;;;;;;;;;;;21.05;59.11;100577.78;2196700;39;113669;-53
2021/06/20 02:47:02;;;;;;;;;;;;;;;21.05;58.77;100576.97;2191847;39;113562;-52
2021/06/20 02:48:34;;;;;;;;;;;;;;;21.03;58.94;100574.47;2186029;39;113706;-53
2021/06/20 02:50:07;;;;;;;;;;;;;;;21.03;58.65;100573.66;2185163;39;113823;-53
2021/06/20 02:51:42;;;;;;;;;;;;;;;21.04;59.10;100573.31;2196082;39;113740;-53
2021/06/20 02:53:14;;;;;;;;;;;;;;;21.03;59.10;100562.41;2191149;39;113753;-53
2021/06/20 02:56:21;;;;;;;;;;;;;;;21.03;59.03;100566.03;2197545;39;113627;-53
2021/06/20 02:57:53;;;;;;;;;;;;;;;21.04;58.79;100566.88;2189553;39;113719;-53
2021/06/20 02:59:25;;;;;;;;;;;;;;;21.03;58.67;100574.47;2198088;39;113988;-53
2021/06/20 03:00:56;;;;;;;;;;;;;;;21.03;58.74;100573.66;2194245;39;114925;-53
2021/06/20 03:02:29;;;;;;;;;;;;;;;21.01;59.16;100584.38;2198720;39;114777;-53
2021/06/20 03:04:00;;;;;;;;;;;;;;;21.02;58.90;100583.22;2198252;39;114703;-53
2021/06/20 03:05:32;;;;;;;;;;;;;;;21.01;58.96;100585.19;2193007;39;114029;-53
2021/06/20 03:07:05;;;;;;;;;;;;;;;21.01;59.05;100588.00;2196755;39;114873;-53
2021/06/20 03:08:37;;;;;;;;;;;;;;;21.01;58.88;100581.56;2194711;39;113892;-53
2021/06/20 03:10:09;;;;;;;;;;;;;;;21.01;59.15;100592.78;2199907;39;115283;-53
2021/06/20 03:11:42;;;;;;;;;;;;;;;21.00;59.18;100591.13;2198714;39;114683;-53
2021/06/20 03:13:13;;;;;;;;;;;;;;;21.04;58.81;100598.59;2197478;39;114762;-53
2021/06/20 03:14:46;;;;;;;;;;;;;;;21.02;59.18;100591.66;2187425;39;115965;-53
2021/06/20 03:16:20;;;;;;;;;;;;;;;21.00;59.07;100586.34;2196419;39;114850;-53
2021/06/20 03:17:52;;;;;;;;;;;;;;;21.02;59.17;100588.84;2198022;39;114844;-53
2021/06/20 03:19:24;;;;;;;;;;;;;;;21.03;59.02;100584.88;2201335;39;114860;-53
2021/06/20 03:20:57;;;;;;;;;;;;;;;21.01;58.85;100598.41;2207294;39;114790;-53
2021/06/20 03:22:28;;;;;;;;;;;;;;;21.02;59.10;100602.88;2196774;39;115515;-53
2021/06/20 03:24:01;;;;;;;;;;;;;;;21.04;58.97;100603.38;2202245;39;115819;-53
2021/06/20 03:25:33;;;;;;;;;;;;;;;21.02;59.03;100609.34;2204587;39;115612;-53
2021/06/20 03:27:05;;;;;;;;;;;;;;;21.02;59.06;100600.06;2197745;39;115469;-52
2021/06/20 03:28:37;;;;;;;;;;;;;;;21.03;58.79;100598.94;2199204;39;115463;-53
2021/06/20 03:30:09;;;;;;;;;;;;;;;21.02;59.25;100597.28;2197727;39;115546;-53
2021/06/20 03:31:40;;;;;;;;;;;;;;;21.03;59.21;100590.50;2196294;39;115644;-52
2021/06/20 03:33:13;;;;;;;;;;;;;;;21.02;58.94;100598.09;2201269;39;114853;-52
2021/06/20 03:34:45;;;;;;;;;;;;;;;21.03;59.19;100593.31;2202970;39;116366;-53
2021/06/20 03:36:17;;;;;;;;;;;;;;;21.02;58.81;100594.47;2202845;39;115511;-53
2021/06/20 03:37:49;;;;;;;;;;;;;;;21.04;58.83;100598.59;2204705;39;115930;-53
2021/06/20 03:39:21;;;;;;;;;;;;;;;21.04;59.07;100609.00;2203765;39;116292;-53
2021/06/20 03:40:54;;;;;;;;;;;;;;;21.02;58.73;100608.50;2204359;39;115796;-52
2021/06/20 03:42:26;;;;;;;;;;;;;;;21.02;59.21;100591.66;2206715;39;115599;-53
2021/06/20 03:43:58;;;;;;;;;;;;;;;21.02;59.14;100597.28;2203114;39;114371;-53
2021/06/20 03:45:29;;;;;;;;;;;;;;;21.02;58.75;100597.28;2204287;39;113610;-53
2021/06/20 03:47:01;;;;;;;;;;;;;;;21.02;59.12;100592.50;2198573;39;113911;-53
2021/06/20 03:48:34;;;;;;;;;;;;;;;21.00;58.67;100597.59;2202335;39;114102;-53
2021/06/20 03:50:06;;;;;;;;;;;;;;;21.00;58.87;100594.78;2204809;39;113670;-53
2021/06/20 03:51:38;;;;;;;;;;;;;;;21.01;58.61;100599.25;2202408;39;113938;-52
2021/06/20 03:53:11;;;;;;;;;;;;;;;21.02;58.98;100605.69;2202323;39;113634;-53
2021/06/20 03:54:49;;;;;;;;;;;;;;;21.00;58.66;100597.59;2204439;39;114081;-52
2021/06/20 03:56:21;;;;;;;;;;;;;;;20.99;58.92;100600.69;2204297;39;113786;-53
2021/06/20 03:57:53;;;;;;;;;;;;;;;21.00;58.77;100594.78;2203699;39;113584;-53
2021/06/20 03:59:25;;;;;;;;;;;;;;;20.98;58.79;100587.84;2203603;39;113753;-54
2021/06/20 04:00:57;;;;;;;;;;;;;;;20.98;58.98;100597.09;2203092;39;113751;-53
2021/06/20 04:02:29;;;;;;;;;;;;;;;21.01;58.99;100606.84;2196544;39;113814;-52
2021/06/20 04:04:01;;;;;;;;;;;;;;;21.00;58.90;100608.81;2198332;39;114635;-52
2021/06/20 04:05:33;;;;;;;;;;;;;;;20.99;59.02;100611.94;2201341;39;114213;-53
2021/06/20 04:07:05;;;;;;;;;;;;;;;20.98;58.84;100602.72;2204140;39;114813;-53
2021/06/20 04:08:36;;;;;;;;;;;;;;;20.99;59.22;100609.97;2203536;39;115520;-52
2021/06/20 04:10:09;;;;;;;;;;;;;;;21.01;59.23;100607.69;2207545;39;114836;-53
2021/06/20 04:11:41;;;;;;;;;;;;;;;21.00;59.23;100607.97;2204741;39;115437;-53
2021/06/20 04:13:13;;;;;;;;;;;;;;;21.00;59.19;100605.19;2204992;39;114912;-53
2021/06/20 04:14:44;;;;;;;;;;;;;;;21.01;58.82;100613.28;2203129;39;114099;-53
2021/06/20 04:16:16;;;;;;;;;;;;;;;21.00;59.13;100610.78;2203878;39;114929;-53
2021/06/20 04:17:48;;;;;;;;;;;;;;;21.00;59.28;100607.97;2203147;39;114871;-53
2021/06/20 04:19:20;;;;;;;;;;;;;;;21.01;59.23;100612.47;2202832;39;114769;-53
2021/06/20 04:20:52;;;;;;;;;;;;;;;21.01;58.80;100613.28;2204263;39;114940;-53
2021/06/20 04:22:24;;;;;;;;;;;;;;;20.99;58.79;100609.97;2196180;39;114941;-53
2021/06/20 04:23:55;;;;;;;;;;;;;;;20.99;59.21;100612.75;2201583;39;115160;-53
2021/06/20 04:25:27;;;;;;;;;;;;;;;21.00;58.90;100607.97;2199251;39;115189;-53
2021/06/20 04:26:59;;;;;;;;;;;;;;;21.01;59.22;100616.09;2202510;39;115515;-52
2021/06/20 04:28:31;;;;;;;;;;;;;;;21.00;59.10;100610.78;2199753;39;114580;-53
2021/06/20 04:30:03;;;;;;;;;;;;;;;20.99;58.96;100611.94;2192841;39;115486;-53
2021/06/20 04:31:35;;;;;;;;;;;;;;;20.97;59.30;100606.66;2200733;39;115628;-53
2021/06/20 04:33:07;;;;;;;;;;;;;;;20.97;59.03;100603.00;2201161;39;115845;-53
2021/06/20 04:34:39;;;;;;;;;;;;;;;20.96;59.16;100599.38;2202903;39;114562;-53
2021/06/20 04:36:11;;;;;;;;;;;;;;;20.95;58.99;100600.53;2205328;39;116312;-53
2021/06/20 04:37:43;;;;;;;;;;;;;;;20.97;59.10;100601.03;2197799;39;116261;-53
2021/06/20 04:39:15;;;;;;;;;;;;;;;20.96;59.25;100601.34;2196335;39;114999;-53
2021/06/20 04:40:47;;;;;;;;;;;;;;;20.97;59.13;100603.00;2196922;39;115485;-52
2021/06/20 04:42:21;;;;;;;;;;;;;;;20.99;59.04;100604.34;2202934;39;115527;-53
2021/06/20 04:45:25;;;;;;;;;;;;;;;20.97;59.17;100603.84;2198124;39;115509;-54
2021/06/20 04:46:57;;;;;;;;;;;;;;;20.98;58.98;100605.50;2202843;39;116097;-53
2021/06/20 04:48:29;;;;;;;;;;;;;;;20.98;59.17;100605.50;2207486;39;115588;-53
2021/06/20 04:50:01;;;;;;;;;;;;;;;20.98;59.08;100610.28;2203747;39;113898;-53
2021/06/20 04:51:38;;;;;;;;;;;;;;;20.98;58.85;100604.69;2204968;39;113668;-53
2021/06/20 04:53:10;;;;;;;;;;;;;;;20.97;59.24;100603.00;2197139;39;113624;-53
2021/06/20 04:56:17;;;;;;;;;;;;;;;20.99;59.05;100604.34;2201173;39;113695;-53
2021/06/20 04:57:49;;;;;;;;;;;;;;;20.97;59.12;100598.22;2190358;39;113763;-53
2021/06/20 04:59:20;;;;;;;;;;;;;;;20.96;58.95;100599.38;2202458;39;113851;-53
2021/06/20 05:00:52;;;;;;;;;;;;;;;20.97;58.74;100603.84;2203336;39;113787;-52
2021/06/20 05:02:24;;;;;;;;;;;;;;;20.97;58.66;100601.03;2203859;39;113633;-53
2021/06/20 05:03:56;;;;;;;;;;;;;;;20.95;58.91;100603.31;2203953;39;114011;-53
2021/06/20 05:05:28;;;;;;;;;;;;;;;20.96;58.68;100609.78;2200877;39;114006;-53
2021/06/20 05:07:00;;;;;;;;;;;;;;;20.95;58.86;100605.31;2204986;39;113872;-53
2021/06/20 05:08:32;;;;;;;;;;;;;;;20.94;58.78;100610.09;2201905;39;113995;-53
2021/06/20 05:10:05;;;;;;;;;;;;;;;20.97;59.06;100608.63;2207386;39;113697;-54
2021/06/20 05:11:37;;;;;;;;;;;;;;;20.96;58.96;100599.38;2202834;39;114987;-53
2021/06/20 05:13:09;;;;;;;;;;;;;;;20.94;58.87;100598.84;2202786;39;113903;-54
2021/06/20 05:14:43;;;;;;;;;;;;;;;20.94;59.03;100606.47;2202868;39;114820;-53
2021/06/20 05:16:15;;;;;;;;;;;;;;;20.95;59.00;100602.50;2194305;39;114907;-53
2021/06/20 05:17:47;;;;;;;;;;;;;;;20.94;59.09;100604.47;2194982;39;114904;-53
2021/06/20 05:19:19;;;;;;;;;;;;;;;20.93;59.06;100594.41;2201499;39;114930;-53
2021/06/20 05:20:50;;;;;;;;;;;;;;;20.93;58.75;100600.03;2204003;39;114552;-53
2021/06/20 05:22:22;;;;;;;;;;;;;;;20.94;58.90;100598.84;2205210;39;114829;-53
2021/06/20 05:23:54;;;;;;;;;;;;;;;20.95;58.79;100605.31;2205220;39;114883;-53
2021/06/20 05:25:26;;;;;;;;;;;;;;;20.95;58.92;100599.69;2201983;39;115237;-53
2021/06/20 05:26:58;;;;;;;;;;;;;;;20.94;58.73;100601.66;2188562;39;114863;-53
2021/06/20 05:28:30;;;;;;;;;;;;;;;20.94;58.93;100604.47;2194183;39;114843;-56
2021/06/20 05:30:02;;;;;;;;;;;;;;;20.94;58.93;100598.84;2203073;39;116018;-53
2021/06/20 05:31:34;;;;;;;;;;;;;;;20.92;58.60;100606.78;2200295;39;115281;-52
2021/06/20 05:33:06;;;;;;;;;;;;;;;20.95;58.66;100606.13;2202755;39;115473;-53
2021/06/20 05:34:38;;;;;;;;;;;;;;;20.93;58.73;100600.03;2202160;39;115388;-53
2021/06/20 05:36:10;;;;;;;;;;;;;;;20.94;58.85;100603.66;2204381;39;115540;-52
2021/06/20 05:37:42;;;;;;;;;;;;;;;20.93;58.94;100597.22;2202783;39;115696;-53
2021/06/20 05:39:14;;;;;;;;;;;;;;;20.92;59.00;100603.13;2198309;39;115466;-53
2021/06/20 05:40:46;;;;;;;;;;;;;;;20.94;59.09;100604.47;2200083;39;115481;-53
2021/06/20 05:42:18;;;;;;;;;;;;;;;20.94;58.70;100598.06;2195801;39;115603;-52
2021/06/20 05:43:50;;;;;;;;;;;;;;;20.92;58.99;100600.34;2199831;39;115562;-53
2021/06/20 05:45:21;;;;;;;;;;;;;;;20.93;58.79;100600.03;2197420;39;114552;-53
2021/06/20 05:46:54;;;;;;;;;;;;;;;20.92;58.65;100594.72;2203067;39;115504;-52
2021/06/20 05:48:25;;;;;;;;;;;;;;;20.90;58.76;100592.22;2204355;39;115542;-53
2021/06/20 05:49:57;;;;;;;;;;;;;;;20.91;58.69;100590.25;2203693;39;115577;-53
2021/06/20 05:51:29;;;;;;;;;;;;;;;20.90;58.74;100594.19;2197209;39;114546;-53
2021/06/20 05:53:01;;;;;;;;;;;;;;;20.91;58.79;100593.88;2205884;39;115515;-52
2021/06/20 05:54:33;;;;;;;;;;;;;;;20.90;58.81;100592.22;2204069;39;113748;-53
2021/06/20 05:56:05;;;;;;;;;;;;;;;20.90;59.09;100594.19;2197148;39;114292;-53
2021/06/20 05:57:37;;;;;;;;;;;;;;;20.91;59.24;100593.88;2200341;39;113732;-53
2021/06/20 05:59:09;;;;;;;;;;;;;;;20.92;59.01;100595.56;2204930;39;114023;-53
2021/06/20 06:00:41;;;;;;;;;;;;;;;20.94;59.04;100598.06;2204666;39;113740;-53
2021/06/20 06:02:14;;;;;;;;;;;;;;;20.94;59.14;100586.81;2197934;39;113817;-53
2021/06/20 06:03:45;;;;;;;;;;;;;;;20.93;58.92;100591.59;2194689;39;114001;-53
2021/06/20 06:05:17;;;;;;;;;;;;;;;20.94;58.82;100586.81;2199097;39;113763;-52
2021/06/20 06:06:50;;;;;;;;;;;;;;;20.92;59.10;100589.09;2200904;39;113716;-53
2021/06/20 06:08:21;;;;;;;;;;;;;;;20.95;59.17;100588.44;2196404;39;113818;-52
2021/06/20 06:09:53;;;;;;;;;;;;;;;20.95;59.17;100582.84;2200401;39;114154;-53
2021/06/20 06:11:25;;;;;;;;;;;;;;;20.92;59.07;100584.31;2204072;39;114556;-53
2021/06/20 06:12:58;;;;;;;;;;;;;;;20.94;58.78;100584.81;2205103;39;113925;-53
2021/06/20 06:14:29;;;;;;;;;;;;;;;20.92;58.92;100589.94;2202159;39;113844;-53
2021/06/20 06:16:01;;;;;;;;;;;;;;;20.92;59.21;100595.56;2205612;39;113630;-53
2021/06/20 06:17:34;;;;;;;;;;;;;;;20.92;58.86;100598.34;2202100;39;115414;-53
2021/06/20 06:19:06;;;;;;;;;;;;;;;20.92;59.01;100595.56;2197876;39;115184;-53
2021/06/20 06:20:37;;;;;;;;;;;;;;;20.91;58.93;100595.84;2192479;39;114830;-53
2021/06/20 06:22:09;;;;;;;;;;;;;;;20.91;58.68;100602.31;2200311;39;114774;-53
2021/06/20 06:23:41;;;;;;;;;;;;;;;20.91;58.75;100593.88;2201227;39;114810;-53
2021/06/20 06:25:13;;;;;;;;;;;;;;;20.94;59.23;100598.84;2202398;39;114842;-53
2021/06/20 06:26:45;;;;;;;;;;;;;;;20.92;58.99;100600.34;2200150;39;115252;-53
2021/06/20 06:28:17;;;;;;;;;;;;;;;20.93;58.86;100597.22;2205394;39;114849;-53
2021/06/20 06:29:49;;;;;;;;;;;;;;;20.93;59.28;100596.38;2204026;39;114831;-53
2021/06/20 06:31:21;;;;;;;;;;;;;;;20.95;59.11;100597.72;2207245;39;114840;-53
2021/06/20 06:32:53;;;;;;;;;;;;;;;20.93;58.80;100600.03;2201480;39;113896;-52
2021/06/20 06:34:25;;;;;;;;;;;;;;;20.92;59.34;100605.94;2198275;39;114991;-52
2021/06/20 06:35:57;;;;;;;;;;;;;;;20.94;59.01;100606.47;2204785;39;114980;-52
2021/06/20 06:37:28;;;;;;;;;;;;;;;20.92;59.21;100603.97;2203842;39;114801;-53
2021/06/20 06:39:00;;;;;;;;;;;;;;;20.91;59.01;100607.09;2197702;39;115662;-53
2021/06/20 06:40:33;;;;;;;;;;;;;;;20.91;58.84;100607.94;2197781;39;115512;-53
2021/06/20 06:42:05;;;;;;;;;;;;;;;20.90;58.88;100603.44;2200287;39;115410;-53
2021/06/20 06:43:37;;;;;;;;;;;;;;;20.92;58.86;100603.97;2204159;39;114618;-53
2021/06/20 06:45:09;;;;;;;;;;;;;;;20.94;58.87;100600.84;2204331;39;115518;-53
2021/06/20 06:46:41;;;;;;;;;;;;;;;20.92;58.97;100600.34;2203213;39;116120;-52
2021/06/20 06:48:13;;;;;;;;;;;;;;;20.93;58.96;100608.44;2197261;39;115851;-53
2021/06/20 06:49:45;;;;;;;;;;;;;;;20.93;59.18;100605.63;2202530;39;114329;-53
2021/06/20 06:51:17;;;;;;;;;;;;;;;20.92;59.21;100605.94;2197137;39;115947;-53
2021/06/20 06:52:49;;;;;;;;;;;;;;;20.93;58.96;100614.06;2197608;39;115515;-52
2021/06/20 06:54:21;;;;;;;;;;;;;;;20.93;58.72;100607.63;2197699;39;116087;-53
2021/06/20 06:55:53;;;;;;;;;;;;;;;20.94;58.77;100615.69;2202567;39;115855;-53
2021/06/20 06:57:25;;;;;;;;;;;;;;;20.92;58.92;100611.56;2204014;39;114614;-53
2021/06/20 06:58:58;;;;;;;;;;;;;;;20.92;58.79;100620.81;2200776;39;114651;-53
2021/06/20 07:00:30;;;;;;;;;;;;;;;20.95;59.12;100620.19;2196344;39;114010;-52
2021/06/20 07:02:02;;;;;;;;;;;;;;;20.96;58.70;100626.63;2200386;39;113817;-52
2021/06/20 07:03:34;;;;;;;;;;;;;;;20.95;58.78;100625.78;2201984;39;114380;-53
2021/06/20 07:05:06;;;;;;;;;;;;;;;20.95;58.69;100620.19;2203297;39;113911;-54
2021/06/20 07:06:38;;;;;;;;;;;;;;;20.93;58.80;100616.88;2203327;39;113615;-52
2021/06/20 07:08:11;;;;;;;;;;;;;;;20.93;58.89;100622.50;2208020;39;114009;-53
2021/06/20 07:09:43;;;;;;;;;;;;;;;20.94;58.69;100618.50;2206183;39;115559;-52
2021/06/20 07:11:14;;;;;;;;;;;;;;;20.93;58.76;100625.31;2193792;39;113718;-53
2021/06/20 07:12:46;;;;;;;;;;;;;;;20.94;59.03;100621.31;2199283;39;113850;-53
2021/06/20 07:14:18;;;;;;;;;;;;;;;20.92;58.91;100620.00;2193679;39;113868;-53
2021/06/20 07:15:50;;;;;;;;;;;;;;;20.92;58.65;100617.19;2190884;39;113606;-53
2021/06/20 07:17:22;;;;;;;;;;;;;;;20.92;58.97;100611.56;2193557;39;113722;-53
2021/06/20 07:18:54;;;;;;;;;;;;;;;20.92;59.15;100614.38;2192031;39;113849;-53
2021/06/20 07:20:26;;;;;;;;;;;;;;;20.93;59.04;100614.06;2199414;39;113819;-53
2021/06/20 07:21:58;;;;;;;;;;;;;;;20.93;59.19;100619.69;2191269;39;114920;-52
2021/06/20 07:23:30;;;;;;;;;;;;;;;20.92;59.06;100623.63;2195467;39;114956;-52
2021/06/20 07:25:02;;;;;;;;;;;;;;;20.94;59.24;100623.31;2190655;39;114821;-53
2021/06/20 07:26:34;;;;;;;;;;;;;;;20.93;59.01;100625.31;2193703;39;114941;-53
2021/06/20 07:28:06;;;;;;;;;;;;;;;20.95;59.17;100628.59;2197993;39;115638;-54
2021/06/20 07:29:38;;;;;;;;;;;;;;;20.99;59.15;100635.25;2190745;39;114817;-56
2021/06/20 07:31:10;;;;;;;;;;;;;;;20.95;59.09;100633.38;2196564;39;114196;-52
2021/06/20 07:32:42;;;;;;;;;;;;;;;20.95;58.81;100636.19;2196018;39;115422;-53
2021/06/20 07:34:14;;;;;;;;;;;;;;;20.96;59.25;100632.25;2192566;39;115350;-53
2021/06/20 07:35:51;;;;;;;;;;;;;;;20.94;59.19;100640.97;2195495;39;114799;-53
2021/06/20 07:37:23;;;;;;;;;;;;;;;20.94;59.22;100642.97;2191495;39;114962;-53
2021/06/20 07:38:55;;;;;;;;;;;;;;;20.95;58.87;100642.66;2193657;39;114845;-54
2021/06/20 07:40:26;;;;;;;;;;;;;;;20.91;59.24;100636.00;2198647;39;114972;-53
2021/06/20 07:41:59;;;;;;;;;;;;;;;20.91;58.88;100638.81;2193980;39;114940;-53
2021/06/20 07:43:31;;;;;;;;;;;;;;;20.93;59.19;100633.72;2193108;39;115808;-53
2021/06/20 07:45:04;;;;;;;;;;;;;;;20.91;59.27;100629.56;2188775;39;115597;-53
2021/06/20 07:46:36;;;;;;;;;;;;;;;20.92;58.94;100642.47;2189458;39;115487;-52
2021/06/20 07:48:08;;;;;;;;;;;;;;;20.92;58.94;100646.09;2195535;39;115499;-53
2021/06/20 07:49:40;;;;;;;;;;;;;;;20.93;58.88;100644.97;2197296;39;114617;-53
2021/06/20 07:51:11;;;;;;;;;;;;;;;20.91;58.94;100646.41;2190570;39;115792;-53
2021/06/20 07:52:43;;;;;;;;;;;;;;;20.90;59.21;100651.19;2195823;39;115913;-53